Time;durP1;ratioP1;P1;durP2;ratioP2;P2;SDS_P1;SDS_P2;PMS_P1;PMS_P2;Temp;Humidity;BMP_temperature;BMP_pressure;BME280_temperature;BME280_humidity;BME280_pressure;Samples;Min_cycle;Max_cycle;Signal;HPM_P1;HPM_P2
2022/09/29 00:01:18;;;;;;;59.92;56.00;;;;;;;14.52;100.00;100047.94;4993708;28;20054;-81
2022/09/29 00:03:45;;;;;;;55.85;51.83;;;;;;;14.59;100.00;100035.22;4985286;28;20062;-83
2022/09/29 00:06:14;;;;;;;54.40;50.50;;;;;;;14.43;100.00;100040.34;4964104;28;20039;-81
2022/09/29 00:08:42;;;;;;;49.25;45.55;;;;;;;14.16;100.00;100034.06;4957793;28;20472;-80
2022/09/29 00:11:10;;;;;;;50.13;46.70;;;;;;;14.20;100.00;100043.22;4967228;28;20097;-80
2022/09/29 00:13:40;;;;;;;57.15;53.15;;;;;;;14.23;100.00;100031.25;4962009;28;20040;-80
2022/09/29 00:16:09;;;;;;;50.58;47.05;;;;;;;14.19;100.00;100034.41;4968021;28;20050;-81
2022/09/29 00:18:37;;;;;;;61.28;57.58;;;;;;;14.18;100.00;100039.97;4971093;28;20055;-80
2022/09/29 00:21:06;;;;;;;65.97;61.80;;;;;;;14.30;100.00;100031.84;4966199;29;20065;-81
2022/09/29 00:23:34;;;;;;;58.90;55.00;;;;;;;14.00;100.00;100038.38;4970915;28;20400;-81
2022/09/29 00:26:07;;;;;;;52.55;48.67;;;;;;;13.77;100.00;100039.38;4956234;28;20055;-80
2022/09/29 00:28:36;;;;;;;60.72;56.30;;;;;;;14.12;100.00;100039.09;4958759;28;20047;-80
2022/09/29 00:31:04;;;;;;;54.78;51.33;;;;;;;14.01;100.00;100034.69;4972525;28;20061;-80
2022/09/29 00:33:32;;;;;;;50.97;47.45;;;;;;;14.10;100.00;100035.03;4970040;28;20042;-82
2022/09/29 00:36:02;;;;;;;50.65;47.40;;;;;;;13.92;100.00;100036.16;4952978;28;20070;-81
2022/09/29 00:38:30;;;;;;;43.55;40.25;;;;;;;13.78;100.00;100032.19;4960377;29;20047;-81
2022/09/29 00:40:57;;;;;;;49.90;46.53;;;;;;;14.03;100.00;100035.22;4966272;28;20069;-82
2022/09/29 00:43:50;;;;;;;48.15;44.72;;;;;;;14.13;100.00;100034.56;4960876;28;20043;-81
2022/09/29 00:46:20;;;;;;;42.80;39.88;;;;;;;13.55;100.00;100033.94;4958291;28;20046;-81
2022/09/29 00:48:49;;;;;;;42.72;39.50;;;;;;;13.42;100.00;100043.06;4973088;28;20744;-81
2022/09/29 00:51:19;;;;;;;61.92;57.30;;;;;;;13.81;100.00;100039.72;4971598;28;20385;-80
2022/09/29 00:53:48;;;;;;;74.18;69.88;;;;;;;13.64;100.00;100043.16;4961149;28;20477;-80
2022/09/29 00:56:18;;;;;;;73.63;69.25;;;;;;;13.96;100.00;100046.06;4968907;28;20061;-80
2022/09/29 00:58:53;;;;;;;55.65;51.85;;;;;;;13.88;100.00;100043.00;4967582;28;20057;-81
2022/09/29 01:01:21;;;;;;;59.17;55.40;;;;;;;13.62;100.00;100039.16;4950974;28;20091;-81
2022/09/29 01:03:52;;;;;;;50.20;46.08;;;;;;;13.69;100.00;100035.25;4967037;28;20121;-81
2022/09/29 01:06:25;;;;;;;48.65;44.70;;;;;;;13.41;100.00;100028.13;4964273;28;20039;-81
2022/09/29 01:08:57;;;;;;;50.03;46.50;;;;;;;13.22;100.00;100040.84;4967378;28;20066;-80
2022/09/29 01:11:24;;;;;;;55.05;51.35;;;;;;;13.47;100.00;100037.84;4980223;28;20052;-81
2022/09/29 01:13:53;;;;;;;51.30;47.83;;;;;;;13.52;100.00;100035.25;4972433;28;20051;-80
2022/09/29 01:16:20;;;;;;;47.55;44.42;;;;;;;12.91;100.00;100034.13;4972135;28;20062;-80
2022/09/29 01:18:47;;;;;;;58.40;54.33;;;;;;;13.25;100.00;100028.91;4958594;28;20055;-80
2022/09/29 01:21:26;;;;;;;62.88;58.40;;;;;;;13.42;100.00;100039.59;4972305;28;20031;-81
2022/09/29 01:24:22;;;;;;;59.38;56.00;;;;;;;13.38;100.00;100041.16;4954837;29;20071;-81
2022/09/29 01:27:12;;;;;;;56.38;52.35;;;;;;;13.26;100.00;100050.00;4954612;28;20050;-81
2022/09/29 01:29:54;;;;;;;50.88;47.13;;;;;;;13.15;100.00;100045.50;4959159;28;20062;-80
2022/09/29 01:32:27;;;;;;;;;;;;;;;13.46;100.00;100048.72;4966670;28;20078;-80
2022/09/29 01:35:04;;;;;;;53.20;49.70;;;;;;;13.69;100.00;100045.13;4963957;28;20334;-80
2022/09/29 01:37:43;;;;;;;48.90;45.50;;;;;;;13.66;100.00;100046.41;4976612;28;20055;-80
2022/09/29 01:40:14;;;;;;;50.40;46.42;;;;;;;13.72;100.00;100041.97;4960043;28;20120;-80
2022/09/29 01:42:48;;;;;;;46.20;42.97;;;;;;;13.50;100.00;100048.03;4969391;28;20047;-82
2022/09/29 01:45:23;;;;;;;47.03;43.53;;;;;;;13.59;100.00;100051.09;4968300;29;20027;-80
2022/09/29 01:47:56;;;;;;;44.75;41.53;;;;;;;13.01;100.00;100044.16;4957258;29;20082;-81
2022/09/29 01:50:28;;;;;;;42.90;39.83;;;;;;;12.91;100.00;100051.97;4990706;28;20043;-80
2022/09/29 01:53:01;;;;;;;54.22;50.53;;;;;;;13.27;100.00;100054.28;4966205;28;20044;-81
2022/09/29 01:55:32;;;;;;;48.67;45.13;;;;;;;13.48;100.00;100044.78;4971525;28;20043;-80
2022/09/29 01:58:02;;;;;;;49.33;46.00;;;;;;;13.47;100.00;100040.50;4973423;28;20042;-80
2022/09/29 02:03:10;;;;;;;57.58;53.63;;;;;;;13.30;100.00;100042.34;4973860;26;20045;-80
2022/09/29 02:05:42;;;;;;;60.50;56.60;;;;;;;13.30;100.00;100042.34;5028936;28;20049;-81
2022/09/29 02:08:15;;;;;;;56.80;52.97;;;;;;;13.11;100.00;100043.56;5031453;28;20486;-81
2022/09/29 02:10:47;;;;;;;;;;;;;;;13.33;100.00;100047.19;5026813;28;20057;-79
2022/09/29 02:13:15;;;;;;;52.40;48.53;;;;;;;13.15;100.00;100047.38;5042404;28;19905;-80
2022/09/29 02:15:46;;;;;;;43.53;40.33;;;;;;;13.07;100.00;100048.53;5033977;28;20053;-81
2022/09/29 02:18:18;;;;;;;50.58;46.97;;;;;;;13.09;100.00;100050.97;5032098;28;20026;-80
2022/09/29 02:20:46;;;;;;;49.33;45.65;;;;;;;13.10;100.00;100053.44;5016339;28;20046;-81
2022/09/29 02:23:13;;;;;;;59.15;55.00;;;;;;;13.26;100.00;100049.19;5026179;28;20049;-81
2022/09/29 02:25:41;;;;;;;50.78;47.22;;;;;;;13.15;100.00;100039.38;5028318;28;20470;-81
2022/09/29 02:28:09;;;;;;;51.28;47.70;;;;;;;13.28;100.00;100045.25;5025316;28;20037;-80
2022/09/29 02:30:36;;;;;;;52.15;48.67;;;;;;;13.20;100.00;100047.47;5036943;28;20050;-80
2022/09/29 02:33:04;;;;;;;41.58;38.17;;;;;;;13.03;100.00;100050.88;5035171;28;20088;-80
2022/09/29 02:35:45;;;;;;;53.47;49.92;;;;;;;13.21;100.00;100059.75;5033433;28;20030;-81
2022/09/29 02:38:23;;;;;;;45.42;42.17;;;;;;;13.04;100.00;100044.53;5024864;28;20387;-80
2022/09/29 02:41:02;;;;;;;48.45;45.10;;;;;;;13.32;100.00;100048.25;5021493;28;20389;-81
2022/09/29 02:43:44;;;;;;;58.90;55.10;;;;;;;13.17;100.00;100050.59;5025485;28;20055;-80
2022/09/29 02:46:25;;;;;;;50.58;47.35;;;;;;;12.83;100.00;100045.19;5029877;28;20049;-80
2022/09/29 02:49:11;;;;;;;57.70;53.75;;;;;;;13.17;100.00;100058.59;5030658;28;20045;-82
2022/09/29 02:51:45;;;;;;;50.17;46.60;;;;;;;13.30;100.00;100050.34;5017146;28;20046;-81
2022/09/29 02:54:33;;;;;;;46.85;43.20;;;;;;;13.50;100.00;100047.22;5023865;28;20034;-80
2022/09/29 02:57:11;;;;;;;51.40;47.75;;;;;;;13.27;100.00;100050.81;5037196;28;20053;-80
2022/09/29 02:59:50;;;;;;;49.75;46.25;;;;;;;13.43;100.00;100049.22;5027793;28;20120;-81
2022/09/29 03:02:23;;;;;;;53.80;50.63;;;;;;;13.54;100.00;100048.34;5031883;28;20075;-81
2022/09/29 03:04:51;;;;;;;51.22;47.63;;;;;;;13.51;100.00;100057.63;5037392;28;20037;-81
2022/09/29 03:07:19;;;;;;;52.95;49.50;;;;;;;13.46;100.00;100059.41;5029467;28;20041;-81
2022/09/29 03:09:46;;;;;;;57.65;54.08;;;;;;;13.35;100.00;100054.97;5024843;28;20046;-81
2022/09/29 03:12:13;;;;;;;53.15;49.35;;;;;;;13.21;100.00;100049.88;5018682;28;20477;-82
2022/09/29 03:14:40;;;;;;;48.00;44.58;;;;;;;13.37;100.00;100052.84;5025246;28;20046;-81
2022/09/29 03:17:09;;;;;;;52.53;48.70;;;;;;;13.34;100.00;100053.31;5029687;28;20473;-81
2022/09/29 03:19:36;;;;;;;58.58;54.75;;;;;;;13.42;100.00;100042.28;5031649;28;20124;-81
2022/09/29 03:22:04;;;;;;;50.30;46.75;;;;;;;13.37;100.00;100050.19;5025548;28;20458;-80
2022/09/29 03:24:33;;;;;;;55.65;52.35;;;;;;;13.47;100.00;100055.72;5031378;28;20133;-80
2022/09/29 03:27:01;;;;;;;55.17;52.05;;;;;;;13.12;100.00;100051.31;5031286;28;20057;-80
2022/09/29 03:29:28;;;;;;;49.08;45.97;;;;;;;13.27;100.00;100048.94;5033683;28;20120;-81
2022/09/29 03:31:55;;;;;;;49.08;45.63;;;;;;;13.34;100.00;100058.66;5025598;28;20128;-81
2022/09/29 03:34:22;;;;;;;51.90;48.78;;;;;;;13.21;100.00;100049.88;5033459;28;20534;-81
2022/09/29 03:36:49;;;;;;;50.05;46.90;;;;;;;13.06;100.00;100053.06;5035117;28;20053;-80
2022/09/29 03:39:16;;;;;;;50.08;47.28;;;;;;;15.61;100.00;100044.25;5034218;28;20560;-80
2022/09/29 03:41:44;;;;;;;46.47;43.38;;;;;;;13.59;100.00;100039.63;5039666;28;20069;-81
2022/09/29 03:44:11;;;;;;;42.42;39.35;;;;;;;13.01;100.00;100049.50;5029795;28;20057;-80
2022/09/29 03:46:38;;;;;;;45.72;42.65;;;;;;;13.18;100.00;100052.22;5026370;28;20046;-81
2022/09/29 03:49:05;;;;;;;47.33;44.17;;;;;;;13.21;100.00;100051.75;5029809;28;20056;-80
2022/09/29 03:51:32;;;;;;;42.92;40.20;;;;;;;12.85;100.00;100051.06;5025923;28;20050;-81
2022/09/29 03:53:59;;;;;;;52.08;48.17;;;;;;;13.04;100.00;100054.34;5022072;28;20474;-79
2022/09/29 03:56:25;;;;;;;49.47;45.38;;;;;;;12.67;100.00;100057.38;5023658;28;20088;-80
2022/09/29 03:58:54;;;;;;;58.83;53.83;;;;;;;12.45;100.00;100061.72;5034005;28;20117;-80
2022/09/29 04:01:21;;;;;;;57.88;53.22;;;;;;;12.47;100.00;100063.09;5029997;28;20054;-79
2022/09/29 04:03:47;;;;;;;40.67;37.67;;;;;;;12.57;100.00;100063.31;5021951;28;20046;-81
2022/09/29 04:06:14;;;;;;;41.67;38.72;;;;;;;12.59;100.00;100068.41;5021836;28;20496;-80
2022/09/29 04:08:41;;;;;;;41.47;38.53;;;;;;;12.45;100.00;100057.19;5037370;28;20077;-80
2022/09/29 04:11:09;;;;;;;39.50;36.90;;;;;;;12.60;100.00;100057.50;5041857;28;20030;-81
2022/09/29 04:13:36;;;;;;;39.17;36.47;;;;;;;12.49;100.00;100058.31;5037942;28;20061;-80
2022/09/29 04:16:06;;;;;;;37.20;34.15;;;;;;;12.43;100.00;100053.13;5025766;28;20470;-80
2022/09/29 04:18:33;;;;;;;37.78;35.58;;;;;;;12.28;100.00;100061.59;5033069;28;20038;-81
2022/09/29 04:21:05;;;;;;;40.50;37.90;;;;;;;12.63;100.00;100061.56;5032194;28;20030;-80
2022/09/29 04:23:32;;;;;;;40.63;37.70;;;;;;;12.60;100.00;100067.34;5023844;28;20410;-81
2022/09/29 04:25:59;;;;;;;37.45;35.08;;;;;;;12.01;100.00;100079.88;5032296;28;20038;-81
2022/09/29 04:28:26;;;;;;;40.17;36.88;;;;;;;12.39;100.00;100079.44;5031743;28;20063;-80
2022/09/29 04:30:53;;;;;;;50.15;45.50;;;;;;;13.09;100.00;100072.31;5037671;28;20072;-80
2022/09/29 04:33:21;;;;;;;46.97;43.97;;;;;;;13.10;100.00;100079.25;5028141;28;20049;-81
2022/09/29 04:35:48;;;;;;;44.63;41.45;;;;;;;13.23;100.00;100090.47;5031982;28;20046;-80
2022/09/29 04:38:15;;;;;;;40.92;37.60;;;;;;;13.44;100.00;100093.53;5024498;28;20468;-81
2022/09/29 04:40:42;;;;;;;42.17;38.90;;;;;;;13.55;100.00;100081.97;5031228;28;20054;-82
2022/09/29 04:43:10;;;;;;;42.95;39.78;;;;;;;13.72;100.00;100090.00;5042993;28;20086;-80
2022/09/29 04:45:37;;;;;;;44.53;41.45;;;;;;;13.76;100.00;100088.47;5025602;28;20064;-80
2022/09/29 04:48:04;;;;;;;41.40;38.00;;;;;;;13.86;100.00;100095.84;5028603;28;20045;-81
2022/09/29 04:50:33;;;;;;;44.33;41.40;;;;;;;14.28;100.00;100090.03;5024403;28;20041;-81
2022/09/29 04:53:02;;;;;;;44.00;40.83;;;;;;;14.04;100.00;100092.94;5033143;28;20046;-80
2022/09/29 04:55:29;;;;;;;44.40;41.08;;;;;;;14.02;100.00;100089.69;5024440;28;20045;-81
2022/09/29 04:57:57;;;;;;;45.83;42.30;;;;;;;14.18;100.00;100094.19;5038509;28;20060;-82
2022/09/29 05:00:24;;;;;;;44.33;41.13;;;;;;;14.25;100.00;100106.56;5021595;28;20053;-81
2022/09/29 05:02:51;;;;;;;44.10;40.53;;;;;;;14.41;100.00;100090.53;5026549;28;20050;-82
2022/09/29 05:05:18;;;;;;;45.42;41.83;;;;;;;14.58;100.00;100090.53;5040874;28;20046;-80
2022/09/29 05:07:47;;;;;;;44.80;41.72;;;;;;;14.97;100.00;100095.78;5030265;28;20038;-84
2022/09/29 05:10:13;;;;;;;46.90;43.03;;;;;;;14.91;100.00;100096.00;5022664;28;20534;-82
2022/09/29 05:12:40;;;;;;;50.17;46.78;;;;;;;15.19;100.00;100092.28;5022397;28;20041;-81
2022/09/29 05:15:09;;;;;;;46.25;43.60;;;;;;;15.09;100.00;100103.69;5040164;28;20055;-80
2022/09/29 05:17:35;;;;;;;46.60;43.53;;;;;;;15.32;100.00;100091.91;5040845;28;20045;-79
2022/09/29 05:20:02;;;;;;;48.47;44.97;;;;;;;15.38;100.00;100093.56;5018892;28;20052;-81
2022/09/29 05:22:29;;;;;;;43.70;40.33;;;;;;;15.41;100.00;100101.09;5035136;28;20421;-81
2022/09/29 05:24:57;;;;;;;45.70;42.30;;;;;;;15.50;100.00;100093.41;5032323;28;20064;-80
2022/09/29 05:27:24;;;;;;;46.22;43.42;;;;;;;15.45;100.00;100101.38;5032318;28;20560;-81
2022/09/29 05:29:51;;;;;;;44.40;40.78;;;;;;;15.48;100.00;100093.66;5025046;28;20056;-80
2022/09/29 05:32:18;;;;;;;51.22;47.28;;;;;;;15.76;100.00;100097.97;5026564;28;20522;-81
2022/09/29 05:34:45;;;;;;;53.45;49.63;;;;;;;15.62;100.00;100099.41;5021576;28;20049;-80
2022/09/29 05:37:12;;;;;;;60.60;56.03;;;;;;;15.86;100.00;100110.63;5030810;28;20049;-81
2022/09/29 05:39:40;;;;;;;58.10;54.55;;;;;;;15.96;100.00;100109.91;5045669;28;20518;-81
2022/09/29 05:42:11;;;;;;;53.25;49.20;;;;;;;16.13;100.00;100099.06;5023084;28;20445;-82
2022/09/29 05:44:38;;;;;;;51.38;48.35;;;;;;;16.10;100.00;100103.06;5015131;28;20045;-80
2022/09/29 05:47:05;;;;;;;57.53;53.78;;;;;;;16.27;100.00;100105.56;5028791;28;20060;-80
2022/09/29 05:49:32;;;;;;;58.10;53.10;;;;;;;16.62;100.00;100109.53;5028887;28;20046;-80
2022/09/29 05:51:59;;;;;;;47.58;44.28;;;;;;;16.96;100.00;100115.34;5019789;28;20499;-82
2022/09/29 05:54:26;;;;;;;47.88;44.38;;;;;;;17.27;100.00;100102.81;5025477;28;20042;-81
2022/09/29 05:56:53;;;;;;;46.28;42.40;;;;;;;17.18;100.00;100099.03;5026728;28;20073;-80
2022/09/29 05:59:22;;;;;;;56.35;51.00;;;;;;;17.32;100.00;100104.72;5037661;28;20064;-80
2022/09/29 06:01:49;;;;;;;44.72;40.70;;;;;;;17.19;100.00;100100.66;5036086;28;20092;-80
2022/09/29 06:04:17;;;;;;;44.90;41.20;;;;;;;17.35;100.00;100098.81;5027324;28;20054;-80
2022/09/29 06:06:44;;;;;;;40.53;37.50;;;;;;;17.60;100.00;100096.16;5027294;28;20049;-80
2022/09/29 06:09:11;;;;;;;42.80;40.03;;;;;;;17.83;100.00;100097.53;5020150;28;20109;-80
2022/09/29 06:11:37;;;;;;;46.80;43.90;;;;;;;17.98;100.00;100094.03;5033674;28;20057;-80
2022/09/29 06:14:04;;;;;;;49.85;46.58;;;;;;;18.07;100.00;100092.44;5029009;28;20051;-80
2022/09/29 06:16:34;;;;;;;44.72;42.33;;;;;;;18.10;100.00;100099.16;5025710;28;20050;-80
2022/09/29 06:19:01;;;;;;;40.22;37.92;;;;;;;17.79;100.00;100085.75;5022168;28;20056;-81
2022/09/29 06:21:29;;;;;;;40.20;38.00;;;;;;;17.58;100.00;100081.41;5018480;28;20128;-82
2022/09/29 06:23:58;;;;;;;53.67;50.30;;;;;;;17.81;100.00;100080.88;5038445;28;20053;-80
2022/09/29 06:26:26;;;;;;;93.53;70.57;;;;;;;17.91;100.00;100081.94;5030543;28;20434;-81
2022/09/29 06:28:53;;;;;;;65.50;58.58;;;;;;;17.92;100.00;100079.00;5036528;28;20045;-80
2022/09/29 06:31:22;;;;;;;75.85;67.72;;;;;;;17.91;100.00;100080.06;5032593;28;20062;-80
2022/09/29 06:33:51;;;;;;;58.75;53.72;;;;;;;17.67;100.00;100084.34;5032088;28;20065;-80
2022/09/29 06:39:01;;;;;;;49.65;47.00;;;;;;;18.37;100.00;100063.09;4976820;28;20046;-81
2022/09/29 06:41:29;;;;;;;47.28;44.80;;;;;;;18.51;100.00;100061.41;5039348;28;20045;-80
2022/09/29 06:44:04;;;;;;;43.92;40.97;;;;;;;18.80;100.00;100060.81;5030372;28;20058;-80
2022/09/29 06:46:31;;;;;;;39.92;37.90;;;;;;;18.65;100.00;100070.50;5046376;28;20061;-80
2022/09/29 06:49:00;;;;;;;43.85;41.00;;;;;;;17.99;100.00;100084.91;5027844;28;20053;-81
2022/09/29 06:51:28;;;;;;;43.15;40.65;;;;;;;18.53;100.00;100081.56;5018306;28;20111;-83
2022/09/29 06:53:55;;;;;;;60.28;54.15;;;;;;;18.97;100.00;100074.69;5020409;28;20042;-80
2022/09/29 06:56:22;;;;;;;51.30;46.40;;;;;;;18.87;100.00;100077.44;5030752;28;20054;-80
2022/09/29 06:58:48;;;;;;;57.35;51.75;;;;;;;18.56;100.00;100092.88;5024346;28;20107;-81
2022/09/29 07:01:15;;;;;;;50.97;46.22;;;;;;;18.56;100.00;100096.34;5035025;28;20037;-80
2022/09/29 07:03:42;;;;;;;50.95;46.60;;;;;;;19.60;100.00;100090.97;5043514;28;20076;-81
2022/09/29 07:06:11;;;;;;;42.95;39.97;;;;;;;19.91;100.00;100090.78;5025418;28;20461;-82
2022/09/29 07:08:39;;;;;;;41.00;38.55;;;;;;;20.36;100.00;100107.59;5027267;28;20057;-80
2022/09/29 07:11:12;;;;;;;35.70;33.80;;;;;;;20.74;100.00;100113.94;5040715;28;20037;-79
2022/09/29 07:13:39;;;;;;;40.90;38.13;;;;;;;20.85;100.00;100105.72;5022242;28;20096;-82
2022/09/29 07:16:07;;;;;;;37.88;35.47;;;;;;;21.26;100.00;100114.88;5028459;28;20042;-80
2022/09/29 07:18:36;;;;;;;39.25;36.75;;;;;;;21.51;100.00;100123.75;5031260;28;20160;-82
2022/09/29 07:21:04;;;;;;;37.35;35.35;;;;;;;22.36;100.00;100119.13;5029328;28;20058;-79
2022/09/29 07:23:32;;;;;;;35.00;32.95;;;;;;;22.71;100.00;100114.94;5023697;28;20119;-79
2022/09/29 07:25:59;;;;;;;33.50;31.67;;;;;;;22.52;100.00;100117.75;5040994;28;20132;-79
2022/09/29 07:28:26;;;;;;;34.60;32.65;;;;;;;22.89;100.00;100102.41;5020711;28;20076;-80
2022/09/29 07:31:00;;;;;;;32.40;30.58;;;;;;;23.24;100.00;100114.41;5027669;28;20577;-81
2022/09/29 07:33:27;;;;;;;37.15;35.25;;;;;;;23.45;100.00;100114.75;5026634;28;20053;-82
2022/09/29 07:35:54;;;;;;;34.13;32.15;;;;;;;22.65;100.00;100108.03;5024280;28;20060;-80
2022/09/29 07:38:23;;;;;;;35.25;33.30;;;;;;;23.63;100.00;100112.97;5026500;28;20049;-80
2022/09/29 07:40:51;;;;;;;32.40;30.50;;;;;;;24.19;100.00;100117.00;5020713;28;20478;-84
2022/09/29 07:43:18;;;;;;;33.13;31.40;;;;;;;24.10;100.00;100107.22;5024151;28;20053;-82
2022/09/29 07:45:48;;;;;;;33.10;31.40;;;;;;;23.64;100.00;100111.06;5026532;28;20050;-81
2022/09/29 07:48:15;;;;;;;31.17;29.33;;;;;;;23.38;100.00;100110.84;5021636;28;20046;-81
2022/09/29 07:50:43;;;;;;;31.17;29.27;;;;;;;23.62;100.00;100108.66;5025735;28;20120;-82
2022/09/29 07:53:10;;;;;;;30.83;28.85;;;;;;;23.15;100.00;100110.81;5025612;28;20050;-81
2022/09/29 07:55:38;;;;;;;31.05;29.00;;;;;;;23.82;100.00;100106.59;5019858;28;20053;-81
2022/09/29 07:58:06;;;;;;;31.38;29.67;;;;;;;23.25;100.00;100107.06;5026569;28;20458;-80
2022/09/29 08:00:33;;;;;;;32.97;30.88;;;;;;;24.52;100.00;100111.28;5025117;28;20046;-81
2022/09/29 08:03:02;;;;;;;38.25;36.05;;;;;;;24.55;100.00;100115.28;5022009;28;20058;-81
2022/09/29 08:05:32;;;;;;;35.40;33.40;;;;;;;24.86;100.00;100112.50;5030074;28;20064;-80
2022/09/29 08:07:59;;;;;;;33.97;31.48;;;;;;;25.18;100.00;100110.53;5019126;28;20061;-80
2022/09/29 08:10:27;;;;;;;32.72;30.75;;;;;;;24.70;100.00;100112.16;5019465;28;20376;-81
2022/09/29 08:12:54;;;;;;;32.38;30.15;;;;;;;25.33;100.00;100101.91;5020293;28;20184;-84
2022/09/29 08:15:30;;;;;;;33.80;31.55;;;;;;;25.75;99.49;100105.72;5006439;28;20068;-86
2022/09/29 08:17:57;;;;;;;33.35;31.38;;;;;;;25.34;100.00;100112.44;5011518;28;20522;-86
2022/09/29 08:20:25;;;;;;;33.60;31.70;;;;;;;25.73;100.00;100109.88;5010250;28;20553;-85
2022/09/29 08:22:55;;;;;;;35.50;33.40;;;;;;;24.95;100.00;100107.09;5023203;28;20054;-86
2022/09/29 08:25:23;;;;;;;37.92;35.88;;;;;;;25.31;100.00;100098.69;5004565;28;20060;-86
2022/09/29 08:27:53;;;;;;;35.30;33.00;;;;;;;25.01;99.21;100114.78;5033212;28;20053;-85
2022/09/29 08:30:20;;;;;;;34.22;32.33;;;;;;;25.02;100.00;100100.06;5021958;28;20068;-84
2022/09/29 08:32:52;;;;;;;32.78;30.17;;;;;;;26.31;100.00;100097.56;5026974;28;20143;-85
2022/09/29 08:35:19;;;;;;;32.35;30.65;;;;;;;26.73;100.00;100098.53;5021926;28;20477;-85
2022/09/29 08:37:46;;;;;;;33.95;31.92;;;;;;;24.93;93.79;100104.69;5031100;28;20053;-85
2022/09/29 08:40:13;;;;;;;33.30;31.40;;;;;;;25.09;96.69;100118.63;5016479;28;20050;-86
2022/09/29 08:42:48;;;;;;;36.00;33.92;;;;;;;25.43;96.97;100117.88;5023567;28;20056;-86
2022/09/29 08:45:25;;;;;;;37.20;35.30;;;;;;;26.22;92.89;100113.13;5022981;28;20041;-86
2022/09/29 08:48:02;;;;;;;35.38;33.03;;;;;;;25.10;97.52;100117.50;5017363;28;20136;-85
2022/09/29 08:50:34;;;;;;;35.92;34.08;;;;;;;25.19;93.46;100114.84;5014578;28;20061;-87
2022/09/29 08:53:06;;;;;;;35.67;33.47;;;;;;;24.37;99.18;100111.69;5020149;28;20050;-85
2022/09/29 08:55:35;;;;;;;;;;;;;;;24.37;100.00;100117.91;5014505;28;20049;-85
2022/09/29 08:58:02;;;;;;;36.67;34.67;;;;;;;24.43;100.00;100118.59;5010832;28;19930;-86
2022/09/29 09:00:39;;;;;;;36.20;34.15;;;;;;;24.95;99.41;100129.63;5013408;28;20054;-84
2022/09/29 09:03:31;;;;;;;31.83;29.92;;;;;;;25.29;98.26;100123.44;5006695;28;20046;-86
2022/09/29 09:06:11;;;;;;;33.13;31.20;;;;;;;24.73;96.39;100130.53;5018917;28;20067;-85
2022/09/29 09:08:53;;;;;;;34.40;32.63;;;;;;;25.03;100.00;100125.34;5025848;28;20068;-85
2022/09/29 09:11:34;;;;;;;33.78;31.77;;;;;;;25.16;100.00;100137.19;5011271;28;20486;-87
2022/09/29 09:14:16;;;;;;;33.22;31.40;;;;;;;25.55;100.00;100137.06;5020538;28;20132;-84
2022/09/29 09:16:54;;;;;;;33.22;30.88;;;;;;;24.77;98.47;100131.47;5014346;28;20391;-84
2022/09/29 09:19:57;;;;;;;32.25;30.48;;;;;;;25.76;92.79;100125.53;5012774;28;20049;-84
2022/09/29 09:22:29;;;;;;;34.17;32.00;;;;;;;26.94;83.17;100114.09;5014812;28;20135;-88
2022/09/29 09:24:58;;;;;;;34.47;32.53;;;;;;;26.58;77.55;100117.34;5002536;28;20046;-84
2022/09/29 09:27:28;;;;;;;34.33;32.13;;;;;;;27.24;84.75;100125.78;5027760;28;20061;-84
2022/09/29 09:30:04;;;;;;;32.05;30.10;;;;;;;26.64;74.71;100113.31;5018758;28;20046;-84
2022/09/29 09:32:38;;;;;;;32.63;30.70;;;;;;;26.49;79.93;100107.28;5009966;28;20043;-85
2022/09/29 09:35:21;;;;;;;33.08;31.02;;;;;;;26.96;76.37;100106.41;5015089;28;20042;-84
2022/09/29 09:37:48;;;;;;;33.05;31.20;;;;;;;26.42;80.88;100100.75;5011274;28;20054;-85
2022/09/29 09:40:22;;;;;;;34.08;31.92;;;;;;;26.38;67.47;100100.56;5009108;28;20054;-85
2022/09/29 09:42:54;;;;;;;34.13;32.03;;;;;;;27.88;65.22;100099.28;5021124;28;20049;-86
2022/09/29 09:45:29;;;;;;;33.67;31.20;;;;;;;28.40;65.81;100106.88;5011844;28;20049;-86
2022/09/29 09:48:03;;;;;;;33.25;30.92;;;;;;;27.25;65.01;100104.78;5022377;28;20064;-84
2022/09/29 09:50:31;;;;;;;33.45;31.45;;;;;;;27.54;62.58;100104.69;5021678;28;20072;-85
2022/09/29 09:53:04;;;;;;;34.45;32.47;;;;;;;28.52;57.68;100094.03;5022857;28;20057;-86
2022/09/29 09:55:35;;;;;;;33.15;31.15;;;;;;;27.36;63.23;100106.78;5013287;28;20167;-85
2022/09/29 09:58:31;;;;;;;32.22;30.23;;;;;;;27.80;64.55;100100.94;5024167;28;20049;-85
2022/09/29 10:01:02;;;;;;;31.13;29.05;;;;;;;26.79;67.22;100101.84;5024322;28;20061;-86
2022/09/29 10:03:29;;;;;;;31.80;29.80;;;;;;;26.89;75.38;100103.41;5026459;28;20050;-84
2022/09/29 10:05:59;;;;;;;32.80;30.75;;;;;;;26.91;67.05;100109.31;5026543;28;20045;-87
2022/09/29 10:08:29;;;;;;;33.90;31.70;;;;;;;25.98;69.41;100116.41;5025694;28;20053;-85
2022/09/29 10:10:58;;;;;;;32.55;30.70;;;;;;;26.13;78.88;100120.53;5032856;28;20057;-85
2022/09/29 10:13:27;;;;;;;33.75;31.75;;;;;;;26.55;73.33;100116.06;5015881;28;20053;-87
2022/09/29 10:15:58;;;;;;;35.17;33.33;;;;;;;27.66;69.76;100127.69;5028157;28;20049;-84
2022/09/29 10:18:30;;;;;;;31.90;29.42;;;;;;;27.15;61.64;100122.34;5027048;28;20049;-85
2022/09/29 10:20:58;;;;;;;36.60;34.25;;;;;;;26.45;64.57;100119.94;5027166;28;20064;-86
2022/09/29 10:23:33;;;;;;;38.05;35.88;;;;;;;26.72;71.98;100129.63;5028577;28;20064;-84
2022/09/29 10:26:07;;;;;;;37.15;34.83;;;;;;;25.60;76.39;100122.53;5030641;28;20050;-85
2022/09/29 10:28:41;;;;;;;35.42;33.20;;;;;;;25.65;80.49;100130.50;5026923;28;20045;-86
2022/09/29 10:31:21;;;;;;;34.47;32.05;;;;;;;25.78;84.17;100117.84;5015807;28;20048;-84
2022/09/29 10:33:52;;;;;;;33.30;31.30;;;;;;;27.64;65.65;100119.84;5015816;28;20049;-85
2022/09/29 10:36:21;;;;;;;33.85;31.85;;;;;;;27.19;64.17;100117.81;5027857;28;20049;-85
2022/09/29 10:38:50;;;;;;;35.15;33.20;;;;;;;26.67;65.53;100124.34;5027815;28;20553;-84
2022/09/29 10:41:18;;;;;;;34.35;32.25;;;;;;;27.95;66.51;100113.16;5030188;28;20053;-85
2022/09/29 10:43:47;;;;;;;35.08;33.00;;;;;;;28.45;52.95;100110.19;5016362;28;20054;-84
2022/09/29 10:46:36;;;;;;;34.85;32.85;;;;;;;29.46;48.42;100105.84;5024865;28;20084;-83
2022/09/29 10:49:13;;;;;;;34.35;32.45;;;;;;;28.76;48.88;100101.41;5021631;28;20108;-85
2022/09/29 10:51:48;;;;;;;34.33;32.20;;;;;;;29.94;48.81;100109.50;5026247;28;20046;-86
2022/09/29 10:54:16;;;;;;;34.70;32.80;;;;;;;29.91;43.22;100104.75;5028348;28;20041;-85
2022/09/29 10:56:48;;;;;;;33.10;31.02;;;;;;;30.68;46.65;100087.06;5024786;28;20478;-86
2022/09/29 10:59:17;;;;;;;34.33;32.25;;;;;;;30.66;45.44;100097.63;5026001;28;20052;-86
2022/09/29 11:01:48;;;;;;;35.00;33.00;;;;;;;30.43;43.98;100089.25;5022035;28;20483;-86
2022/09/29 11:04:19;;;;;;;33.25;31.50;;;;;;;29.05;45.20;100091.41;5025543;28;20046;-85
2022/09/29 11:06:48;;;;;;;39.00;37.00;;;;;;;28.22;47.75;100085.22;5014612;28;20051;-84
2022/09/29 11:09:30;;;;;;;34.67;32.58;;;;;;;27.89;48.43;100089.94;5015286;28;20497;-84
2022/09/29 11:11:57;;;;;;;;;;;;;;;28.99;44.72;100090.00;5028630;28;20058;-86
2022/09/29 11:14:26;;;;;;;36.03;33.80;;;;;;;28.11;49.31;100081.38;5020396;28;19921;-84
2022/09/29 11:16:56;;;;;;;34.15;32.25;;;;;;;27.61;57.27;100090.53;5025216;28;20407;-85
2022/09/29 11:19:24;;;;;;;35.85;33.95;;;;;;;28.05;52.43;100083.50;5025565;28;20050;-85
2022/09/29 11:22:10;;;;;;;35.10;32.78;;;;;;;28.42;47.87;100077.31;5024215;28;20049;-83
2022/09/29 11:25:03;;;;;;;32.63;30.83;;;;;;;28.11;51.44;100081.38;5015812;28;20145;-84